San José International

Airport
ICAO code: 
KSJC
Summary
ICAO Region: 
NAM
Territory: 
Location: 
San Jose, Santa Clara, California,
Coordinates: 
Aerial View: 
37° 22' 0.102" N, 121° 55' 33.262" W
Metar
Observation
KSJC 021453Z 18003KT 10SM FEW010 SCT100 BKN160 08/05 A3010 RMK AO2 SLP191 T00780050 53005
Station
San Jose, San Jose International Airport
Date/Time
2021-12-02 14:53:00
Wind direction
180°
Wind speed
03 kts
Lowest cloud amount
few clouds
Temperature
7.8°C
Dew point
5°C
Humidity
82%
Weather condition
n/a

Description

Norman Y. Mineta San Jose International Airport is a city-owned public-use airport serving the city of San Jose in Santa Clara County, California, United States.

Climatology

Dry-summer subtropical ”Mediterranean" climate (Köppen climate classification Csb) - characterized by warm, dry summers and mild winters. During the summer, rising hot air in California's interior valleys creates a low pressure area that draws winds from the North Pacific High through the Golden Gate, which creates the city's characteristic cool winds and fog. The fog is less pronounced in eastern neighborhoods and during the late summer and early fall, which is the warmest time of the year.

Runways

Designator Length Width Surface Rops
11/29 1402 30 ASP Yes/Yes
12L/30R 3353 46 CON Yes/Yes
12R/30L 3353 46 CON Yes/Yes
Airport map: 
Aerial View: 

SKYbrary Partners:

Safety knowledge contributed by: